Time;durP1;ratioP1;P1;durP2;ratioP2;P2;SDS_P1;SDS_P2;PMS_P1;PMS_P2;Temp;Humidity;BMP_temperature;BMP_pressure;BME280_temperature;BME280_humidity;BME280_pressure;Samples;Min_cycle;Max_cycle;Signal;HPM_P1;HPM_P2
2021/11/21 00:00:05;;;;;;;;;24.67;23.00;;;;;;;;4874788;29;45408;-84
2021/11/21 00:02:30;;;;;;;;;29.00;25.67;;;;;;;;4857315;29;47222;-84
2021/11/21 00:04:56;;;;;;;;;30.67;27.67;;;;;;;;4857099;29;45539;-83
2021/11/21 00:07:21;;;;;;;;;29.67;25.00;;;;;;;;4857631;29;45658;-83
2021/11/21 00:09:49;;;;;;;;;26.33;22.67;;;;;;;;4857741;29;45592;-83
2021/11/21 00:12:15;;;;;;;;;30.67;29.33;;;;;;;;4857422;29;47129;-83
2021/11/21 00:14:40;;;;;;;;;33.00;29.67;;;;;;;;4873163;29;45456;-83
2021/11/21 00:17:07;;;;;;;;;37.33;31.00;;;;;;;;4874641;29;45454;-83
2021/11/21 00:19:33;;;;;;;;;36.00;28.33;;;;;;;;4872834;29;45615;-83
2021/11/21 00:21:58;;;;;;;;;30.67;28.33;;;;;;;;4873032;29;45628;-83
2021/11/21 00:24:23;;;;;;;;;32.33;28.67;;;;;;;;4856750;29;45456;-84
2021/11/21 00:26:48;;;;;;;;;31.00;25.00;;;;;;;;4857604;29;45323;-83
2021/11/21 00:29:14;;;;;;;;;32.67;24.67;;;;;;;;4857783;29;45006;-83
2021/11/21 00:31:39;;;;;;;;;29.33;26.00;;;;;;;;4857358;29;47227;-83
2021/11/21 00:34:04;;;;;;;;;26.00;26.00;;;;;;;;4856930;29;45417;-83
2021/11/21 00:36:30;;;;;;;;;29.00;24.00;;;;;;;;4855314;29;45314;-83
2021/11/21 00:41:58;;;;;;;;;23.67;21.00;;;;;;;;4872204;29;46216;-83
2021/11/21 00:44:23;;;;;;;;;31.67;24.00;;;;;;;;4855762;29;45370;-83
2021/11/21 00:46:48;;;;;;;;;34.33;28.67;;;;;;;;4855830;29;45493;-83
2021/11/21 00:49:16;;;;;;;;;27.33;27.00;;;;;;;;4869128;29;45464;-83
2021/11/21 00:51:48;;;;;;;;;21.33;18.67;;;;;;;;4855299;29;47158;-83
2021/11/21 00:54:27;;;;;;;;;28.67;21.00;;;;;;;;4873582;29;45476;-84
2021/11/21 00:56:53;;;;;;;;;30.33;27.00;;;;;;;;4872231;29;45451;-83
2021/11/21 00:59:19;;;;;;;;;23.33;17.00;;;;;;;;4856966;29;45416;-83
2021/11/21 01:01:51;;;;;;;;;25.33;20.00;;;;;;;;4856508;29;47385;-83
2021/11/21 01:04:17;;;;;;;;;25.00;23.67;;;;;;;;4873470;29;44947;-83
2021/11/21 01:06:43;;;;;;;;;21.33;20.00;;;;;;;;4876337;29;45513;-83
2021/11/21 01:09:09;;;;;;;;;22.67;18.67;;;;;;;;4877814;29;45901;-83
2021/11/21 01:11:34;;;;;;;;;25.00;18.00;;;;;;;;4878010;29;45022;-84
2021/11/21 01:13:59;;;;;;;;;23.67;17.67;;;;;;;;4876050;29;45365;-83
2021/11/21 01:16:27;;;;;;;;;21.00;19.00;;;;;;;;4875133;29;45390;-83
2021/11/21 01:18:52;;;;;;;;;18.67;17.33;;;;;;;;4858469;29;44807;-83
2021/11/21 01:21:18;;;;;;;;;24.33;20.00;;;;;;;;4875849;29;46067;-83
2021/11/21 01:23:43;;;;;;;;;29.00;26.33;;;;;;;;4876306;29;45492;-83
2021/11/21 01:26:09;;;;;;;;;30.00;23.00;;;;;;;;4874445;29;45428;-83
2021/11/21 01:28:35;;;;;;;;;31.33;23.00;;;;;;;;4875343;29;45457;-83
2021/11/21 01:31:03;;;;;;;;;23.33;19.00;;;;;;;;4875932;29;45487;-84
2021/11/21 01:33:35;;;;;;;;;30.00;24.00;;;;;;;;4874692;29;45886;-84
2021/11/21 01:36:00;;;;;;;;;29.67;27.00;;;;;;;;4876077;29;45468;-84
2021/11/21 01:38:26;;;;;;;;;23.67;21.33;;;;;;;;4876910;29;45424;-83
2021/11/21 01:40:51;;;;;;;;;29.67;23.33;;;;;;;;4874136;29;46857;-83
2021/11/21 01:43:16;;;;;;;;;28.33;25.00;;;;;;;;4874675;29;45484;-84
2021/11/21 01:45:42;;;;;;;;;24.67;22.00;;;;;;;;4876453;29;44974;-84
2021/11/21 01:48:09;;;;;;;;;26.00;23.00;;;;;;;;4874133;29;45910;-84
2021/11/21 01:50:38;;;;;;;;;26.67;22.67;;;;;;;;4871683;29;45968;-84
2021/11/21 01:53:04;;;;;;;;;30.33;26.33;;;;;;;;4875453;29;45416;-84
2021/11/21 01:55:30;;;;;;;;;18.67;18.00;;;;;;;;4859340;29;44758;-84
2021/11/21 01:57:55;;;;;;;;;21.67;20.67;;;;;;;;4874341;29;45371;-84
2021/11/21 02:00:22;;;;;;;;;19.67;18.00;;;;;;;;4874630;29;46406;-84
2021/11/21 02:02:47;;;;;;;;;24.67;22.33;;;;;;;;4855280;29;45907;-84
2021/11/21 02:05:19;;;;;;;;;30.33;24.33;;;;;;;;4873558;29;45458;-84
2021/11/21 02:07:46;;;;;;;;;22.33;18.67;;;;;;;;4873321;29;45489;-83
2021/11/21 02:10:12;;;;;;;;;30.33;25.33;;;;;;;;4872945;29;45443;-84
2021/11/21 02:12:38;;;;;;;;;29.67;25.67;;;;;;;;4872817;29;44878;-84
2021/11/21 02:15:07;;;;;;;;;28.67;22.00;;;;;;;;4875542;29;45435;-84
2021/11/21 02:17:33;;;;;;;;;28.67;23.00;;;;;;;;4876277;29;45479;-84
2021/11/21 02:20:02;;;;;;;;;24.33;22.33;;;;;;;;4874899;29;48102;-83
2021/11/21 02:22:27;;;;;;;;;34.67;25.00;;;;;;;;4875260;29;45844;-83
2021/11/21 02:24:52;;;;;;;;;27.33;27.33;;;;;;;;4874727;29;45433;-83
2021/11/21 02:27:25;;;;;;;;;39.67;28.67;;;;;;;;4875046;29;45828;-84
2021/11/21 02:29:51;;;;;;;;;29.67;24.00;;;;;;;;4856023;29;46943;-83
2021/11/21 02:32:16;;;;;;;;;27.33;26.33;;;;;;;;4873508;29;45892;-84
2021/11/21 02:34:41;;;;;;;;;33.67;27.00;;;;;;;;4873944;29;45425;-84
2021/11/21 02:37:08;;;;;;;;;30.67;30.00;;;;;;;;4872348;29;45351;-84
2021/11/21 02:39:34;;;;;;;;;30.00;27.33;;;;;;;;4872741;29;45818;-83
2021/11/21 02:41:59;;;;;;;;;26.67;24.67;;;;;;;;4873714;29;45484;-83
2021/11/21 02:44:26;;;;;;;;;36.33;30.00;;;;;;;;4891395;29;45358;-83
2021/11/21 02:46:52;;;;;;;;;25.67;24.00;;;;;;;;4893014;29;44844;-83
2021/11/21 02:49:17;;;;;;;;;31.67;22.00;;;;;;;;4876226;29;47416;-84
2021/11/21 02:51:42;;;;;;;;;27.00;25.67;;;;;;;;4892350;29;45723;-83
2021/11/21 02:54:07;;;;;;;;;34.67;30.00;;;;;;;;4891627;29;45456;-83
2021/11/21 02:56:32;;;;;;;;;34.00;30.00;;;;;;;;4893358;29;45394;-83
2021/11/21 02:58:58;;;;;;;;;36.00;32.00;;;;;;;;4875653;29;47034;-83
2021/11/21 03:01:24;;;;;;;;;37.67;30.67;;;;;;;;4894285;29;44772;-83
2021/11/21 03:03:50;;;;;;;;;30.33;25.67;;;;;;;;4895424;29;45671;-83
2021/11/21 03:06:16;;;;;;;;;31.00;28.67;;;;;;;;4894466;29;45532;-82
2021/11/21 03:08:41;;;;;;;;;36.00;30.33;;;;;;;;4877657;29;47661;-83
2021/11/21 03:11:26;;;;;;;;;40.67;31.67;;;;;;;;4894817;29;44845;-83
2021/11/21 03:13:51;;;;;;;;;37.33;32.00;;;;;;;;4893599;29;45525;-82
2021/11/21 03:16:17;;;;;;;;;33.00;30.33;;;;;;;;4892921;29;45516;-82
2021/11/21 03:18:42;;;;;;;;;30.67;29.67;;;;;;;;4890807;29;45924;-83
2021/11/21 03:21:07;;;;;;;;;34.00;29.67;;;;;;;;4876182;29;45367;-83
2021/11/21 03:23:33;;;;;;;;;28.33;24.00;;;;;;;;4893052;29;45362;-83
2021/11/21 03:26:01;;;;;;;;;29.67;29.00;;;;;;;;4891863;29;45378;-83
2021/11/21 03:28:27;;;;;;;;;34.33;27.33;;;;;;;;4875057;29;46763;-83
2021/11/21 03:30:52;;;;;;;;;31.00;25.00;;;;;;;;4894544;29;45521;-84
2021/11/21 03:33:18;;;;;;;;;33.33;26.00;;;;;;;;4876685;29;45752;-83
2021/11/21 03:35:43;;;;;;;;;27.33;25.00;;;;;;;;4894596;29;45751;-83
2021/11/21 03:38:08;;;;;;;;;34.00;29.00;;;;;;;;4894218;29;45512;-84
2021/11/21 03:40:33;;;;;;;;;37.00;28.67;;;;;;;;4877544;29;45598;-83
2021/11/21 03:43:06;;;;;;;;;30.67;26.67;;;;;;;;4888876;28;45461;-84
2021/11/21 03:45:31;;;;;;;;;28.33;27.33;;;;;;;;4858961;29;45514;-83
2021/11/21 03:47:56;;;;;;;;;35.67;30.67;;;;;;;;4873460;29;48197;-84
2021/11/21 03:50:22;;;;;;;;;30.67;25.33;;;;;;;;4875344;29;45421;-83
2021/11/21 03:52:48;;;;;;;;;37.67;30.67;;;;;;;;4875366;29;45654;-83
2021/11/21 03:55:15;;;;;;;;;38.67;31.67;;;;;;;;4858075;29;45483;-83
2021/11/21 03:57:41;;;;;;;;;46.33;28.00;;;;;;;;4873344;29;45410;-83
2021/11/21 04:00:08;;;;;;;;;28.67;27.00;;;;;;;;4873495;29;45458;-83
2021/11/21 04:02:34;;;;;;;;;34.00;27.00;;;;;;;;4857360;29;45476;-83
2021/11/21 04:04:59;;;;;;;;;24.33;23.67;;;;;;;;4874694;29;45341;-83
2021/11/21 04:07:24;;;;;;;;;40.00;32.67;;;;;;;;4857918;29;47059;-83
2021/11/21 04:09:49;;;;;;;;;36.00;29.33;;;;;;;;4857732;29;45667;-83
2021/11/21 04:12:15;;;;;;;;;28.67;28.67;;;;;;;;4858133;29;45276;-83
2021/11/21 04:14:43;;;;;;;;;34.33;29.67;;;;;;;;4875895;29;45372;-83
2021/11/21 04:17:08;;;;;;;;;34.33;28.00;;;;;;;;4858681;29;47369;-83
2021/11/21 04:19:33;;;;;;;;;37.67;29.00;;;;;;;;4875694;29;44773;-83
2021/11/21 04:21:59;;;;;;;;;34.33;28.67;;;;;;;;4876871;29;45291;-82
2021/11/21 04:24:27;;;;;;;;;33.67;26.00;;;;;;;;4875384;29;45421;-83
2021/11/21 04:29:56;;;;;;;;;33.33;29.67;;;;;;;;4871630;29;45521;-83
2021/11/21 04:32:21;;;;;;;;;33.33;26.00;;;;;;;;4870156;29;45417;-83
2021/11/21 04:34:46;;;;;;;;;32.33;27.00;;;;;;;;4871740;29;45422;-84
2021/11/21 04:37:12;;;;;;;;;34.00;30.00;;;;;;;;4854239;29;47314;-83
2021/11/21 04:39:38;;;;;;;;;32.00;30.00;;;;;;;;4855479;29;45512;-83
2021/11/21 04:42:04;;;;;;;;;33.67;32.33;;;;;;;;4876044;29;45439;-82
2021/11/21 04:44:29;;;;;;;;;26.33;24.00;;;;;;;;4876647;29;45372;-83
2021/11/21 04:46:54;;;;;;;;;43.33;30.67;;;;;;;;4860463;29;46703;-83
2021/11/21 04:49:20;;;;;;;;;29.00;25.67;;;;;;;;4878204;29;45387;-83
2021/11/21 04:51:45;;;;;;;;;31.00;24.33;;;;;;;;4876692;29;45479;-83
2021/11/21 04:54:18;;;;;;;;;29.67;25.00;;;;;;;;4859390;29;44834;-83
2021/11/21 04:56:46;;;;;;;;;32.00;28.00;;;;;;;;4860360;29;45506;-84
2021/11/21 04:59:11;;;;;;;;;28.00;24.33;;;;;;;;4860796;29;45433;-83
2021/11/21 05:01:36;;;;;;;;;32.67;24.33;;;;;;;;4877940;29;45372;-84
2021/11/21 05:04:03;;;;;;;;;29.00;21.67;;;;;;;;4860651;29;44866;-83
2021/11/21 05:06:29;;;;;;;;;38.33;31.67;;;;;;;;4876665;29;45466;-83
2021/11/21 05:08:54;;;;;;;;;39.00;33.00;;;;;;;;4861226;29;45343;-84
2021/11/21 05:11:20;;;;;;;;;40.00;29.33;;;;;;;;4877488;29;44883;-84
2021/11/21 05:13:45;;;;;;;;;30.67;25.67;;;;;;;;4877691;29;45531;-84
2021/11/21 05:16:10;;;;;;;;;33.00;28.00;;;;;;;;4860363;29;47292;-83
2021/11/21 05:18:36;;;;;;;;;32.67;26.00;;;;;;;;4878846;29;45510;-83
2021/11/21 05:21:04;;;;;;;;;29.67;27.00;;;;;;;;4876707;29;46047;-84
2021/11/21 05:23:29;;;;;;;;;33.67;25.67;;;;;;;;4860248;29;45614;-83
2021/11/21 05:25:54;;;;;;;;;28.67;27.33;;;;;;;;4857787;29;48201;-84
2021/11/21 05:28:19;;;;;;;;;30.00;25.00;;;;;;;;4874781;29;45419;-83
2021/11/21 05:30:47;;;;;;;;;28.67;22.33;;;;;;;;4876789;29;45437;-83
2021/11/21 05:33:13;;;;;;;;;29.33;27.33;;;;;;;;4859603;29;45258;-83
2021/11/21 05:35:39;;;;;;;;;34.00;25.33;;;;;;;;4873995;29;45407;-83
2021/11/21 05:38:07;;;;;;;;;33.33;27.33;;;;;;;;4875527;29;44747;-84
2021/11/21 05:40:32;;;;;;;;;24.00;20.67;;;;;;;;4876347;29;45327;-84
2021/11/21 05:42:57;;;;;;;;;37.67;31.00;;;;;;;;4859988;29;45668;-84
2021/11/21 05:45:22;;;;;;;;;29.67;27.33;;;;;;;;4875077;29;45003;-84
2021/11/21 05:47:48;;;;;;;;;29.33;26.00;;;;;;;;4858010;29;45412;-84
2021/11/21 05:50:14;;;;;;;;;37.00;28.67;;;;;;;;4857929;29;44811;-84
2021/11/21 05:52:45;;;;;;;;;33.00;24.00;;;;;;;;4858333;29;45576;-83
2021/11/21 05:55:10;;;;;;;;;25.33;23.67;;;;;;;;4858782;29;47001;-83
2021/11/21 05:57:36;;;;;;;;;32.33;26.67;;;;;;;;4875354;29;45511;-82
2021/11/21 06:00:02;;;;;;;;;35.00;24.67;;;;;;;;4857006;29;44903;-83
2021/11/21 06:02:27;;;;;;;;;28.67;22.00;;;;;;;;4875780;29;45809;-83
2021/11/21 06:04:53;;;;;;;;;28.33;19.67;;;;;;;;4858399;29;48002;-83
2021/11/21 06:07:18;;;;;;;;;24.00;21.33;;;;;;;;4874755;29;45421;-82
2021/11/21 06:09:46;;;;;;;;;27.00;22.00;;;;;;;;4877130;29;45439;-83
2021/11/21 06:12:11;;;;;;;;;21.67;18.00;;;;;;;;4875726;29;45511;-82
2021/11/21 06:14:38;;;;;;;;;28.67;24.67;;;;;;;;4875274;29;45421;-82
2021/11/21 06:17:04;;;;;;;;;24.00;22.00;;;;;;;;4876186;29;45463;-83
2021/11/21 06:19:30;;;;;;;;;23.33;19.00;;;;;;;;4857463;29;45424;-82
2021/11/21 06:21:55;;;;;;;;;25.67;21.00;;;;;;;;4860112;29;44847;-82
2021/11/21 06:24:20;;;;;;;;;22.33;21.33;;;;;;;;4877340;29;46143;-83
2021/11/21 06:26:45;;;;;;;;;24.67;22.00;;;;;;;;4874666;29;44914;-83
2021/11/21 06:29:11;;;;;;;;;24.33;18.00;;;;;;;;4876417;29;45506;-83
2021/11/21 06:31:36;;;;;;;;;22.00;19.00;;;;;;;;4875715;29;45440;-84
2021/11/21 06:34:01;;;;;;;;;20.00;17.67;;;;;;;;4857187;29;47146;-84
2021/11/21 06:36:27;;;;;;;;;23.00;20.67;;;;;;;;4874816;29;45498;-83
2021/11/21 06:38:52;;;;;;;;;25.00;24.00;;;;;;;;4876972;29;44895;-83
2021/11/21 06:41:20;;;;;;;;;19.33;18.67;;;;;;;;4875849;29;45379;-83
2021/11/21 06:43:46;;;;;;;;;29.00;24.33;;;;;;;;4860919;29;47282;-83
2021/11/21 06:46:11;;;;;;;;;28.33;22.67;;;;;;;;4877194;29;45714;-83
2021/11/21 06:48:36;;;;;;;;;21.33;20.00;;;;;;;;4875747;29;45212;-84
2021/11/21 06:51:03;;;;;;;;;22.00;20.33;;;;;;;;4875324;29;45396;-83
2021/11/21 06:53:30;;;;;;;;;21.00;17.33;;;;;;;;4875307;29;45415;-84
2021/11/21 06:55:56;;;;;;;;;29.00;20.67;;;;;;;;4875144;29;45440;-83
2021/11/21 06:58:21;;;;;;;;;23.00;21.00;;;;;;;;4857821;29;44918;-82
2021/11/21 07:00:46;;;;;;;;;22.33;20.33;;;;;;;;4873346;29;45424;-83
2021/11/21 07:03:11;;;;;;;;;22.00;20.33;;;;;;;;4855138;29;46981;-83
2021/11/21 07:05:37;;;;;;;;;28.67;23.33;;;;;;;;4873910;29;45637;-83
2021/11/21 07:08:02;;;;;;;;;24.00;19.67;;;;;;;;4874583;29;45858;-84
2021/11/21 07:10:27;;;;;;;;;22.00;19.67;;;;;;;;4873747;29;45483;-84
2021/11/21 07:12:52;;;;;;;;;25.33;22.67;;;;;;;;4873856;29;45962;-83
2021/11/21 07:15:18;;;;;;;;;27.00;23.00;;;;;;;;4858313;29;45665;-83
2021/11/21 07:17:44;;;;;;;;;25.33;24.00;;;;;;;;4858248;29;45214;-83
2021/11/21 07:20:15;;;;;;;;;17.67;13.67;;;;;;;;4874121;29;45409;-84
2021/11/21 07:22:41;;;;;;;;;19.67;18.33;;;;;;;;4857733;29;47297;-84
2021/11/21 07:25:07;;;;;;;;;25.33;19.67;;;;;;;;4858327;29;45155;-83
2021/11/21 07:27:32;;;;;;;;;19.33;17.33;;;;;;;;4873907;29;44774;-83
2021/11/21 07:29:58;;;;;;;;;23.33;18.33;;;;;;;;4872683;29;45825;-84
2021/11/21 07:32:24;;;;;;;;;25.67;22.33;;;;;;;;4871820;29;47430;-83
2021/11/21 07:34:49;;;;;;;;;27.00;18.67;;;;;;;;4872217;29;45522;-83
2021/11/21 07:37:14;;;;;;;;;20.67;19.00;;;;;;;;4857545;29;45464;-84
2021/11/21 07:39:39;;;;;;;;;22.00;19.00;;;;;;;;4874421;29;44737;-83
2021/11/21 07:42:05;;;;;;;;;24.67;21.00;;;;;;;;4857677;29;46910;-83
2021/11/21 07:44:37;;;;;;;;;18.33;17.33;;;;;;;;4863015;29;45457;-84
2021/11/21 07:47:02;;;;;;;;;19.33;17.33;;;;;;;;4854953;29;45433;-84
2021/11/21 07:49:27;;;;;;;;;19.00;17.00;;;;;;;;4839952;29;45466;-84
2021/11/21 07:51:53;;;;;;;;;17.33;14.67;;;;;;;;4839084;29;47282;-84
2021/11/21 07:54:18;;;;;;;;;18.00;16.67;;;;;;;;4838869;29;45410;-84
2021/11/21 07:56:43;;;;;;;;;18.33;18.00;;;;;;;;4839187;29;45408;-83
2021/11/21 07:59:10;;;;;;;;;19.33;18.33;;;;;;;;4857208;29;45456;-83
2021/11/21 08:01:35;;;;;;;;;18.67;18.00;;;;;;;;4838976;29;46753;-83
2021/11/21 08:04:01;;;;;;;;;25.67;17.33;;;;;;;;4853877;29;45378;-83
2021/11/21 08:06:26;;;;;;;;;13.33;13.00;;;;;;;;4837621;29;45669;-83
2021/11/21 08:08:51;;;;;;;;;14.00;13.33;;;;;;;;4838993;29;45414;-83
2021/11/21 08:11:16;;;;;;;;;20.00;18.67;;;;;;;;4854830;29;45459;-84
2021/11/21 08:13:41;;;;;;;;;19.00;16.00;;;;;;;;4855448;29;45553;-83
2021/11/21 08:16:07;;;;;;;;;20.33;19.67;;;;;;;;4855806;29;45475;-83
2021/11/21 08:18:32;;;;;;;;;17.33;16.67;;;;;;;;4855737;29;45853;-84
2021/11/21 08:20:57;;;;;;;;;25.67;22.33;;;;;;;;4839718;29;47427;-83
2021/11/21 08:23:30;;;;;;;;;20.00;14.33;;;;;;;;4839416;29;45534;-83
2021/11/21 08:25:56;;;;;;;;;19.33;17.00;;;;;;;;4838557;29;45423;-83
2021/11/21 08:28:21;;;;;;;;;26.33;22.00;;;;;;;;4855762;29;45402;-84
2021/11/21 08:30:46;;;;;;;;;24.67;19.67;;;;;;;;4855302;29;45392;-84
2021/11/21 08:33:12;;;;;;;;;24.33;23.33;;;;;;;;4855992;29;45373;-84
2021/11/21 08:35:41;;;;;;;;;15.67;14.67;;;;;;;;4836890;29;45752;-84
2021/11/21 08:38:06;;;;;;;;;17.33;14.67;;;;;;;;4837325;29;45507;-84
2021/11/21 08:40:32;;;;;;;;;18.67;17.00;;;;;;;;4838117;29;47411;-84
2021/11/21 08:42:58;;;;;;;;;22.33;18.33;;;;;;;;4838906;29;45463;-84
2021/11/21 08:45:32;;;;;;;;;24.67;19.67;;;;;;;;4850249;29;45465;-84
2021/11/21 08:48:04;;;;;;;;;16.00;15.33;;;;;;;;4855200;29;45407;-84
2021/11/21 08:50:30;;;;;;;;;18.67;15.33;;;;;;;;4872986;29;45343;-84
2021/11/21 08:52:57;;;;;;;;;25.00;18.67;;;;;;;;4872352;29;45487;-84
2021/11/21 08:55:22;;;;;;;;;22.67;17.33;;;;;;;;4855845;29;45471;-84
2021/11/21 08:57:47;;;;;;;;;20.00;15.67;;;;;;;;4856525;29;45884;-84
2021/11/21 09:00:13;;;;;;;;;18.33;16.00;;;;;;;;4872078;29;46196;-84
2021/11/21 09:02:44;;;;;;;;;23.00;20.00;;;;;;;;4855905;29;45416;-84
2021/11/21 09:05:11;;;;;;;;;14.33;14.33;;;;;;;;4867067;29;45369;-84
2021/11/21 09:07:37;;;;;;;;;17.67;17.67;;;;;;;;4891422;29;45926;-84
2021/11/21 09:10:04;;;;;;;;;19.67;17.67;;;;;;;;4890059;29;45482;-84
2021/11/21 09:12:29;;;;;;;;;18.33;16.00;;;;;;;;4889285;29;45390;-84
2021/11/21 09:14:54;;;;;;;;;18.00;18.00;;;;;;;;4888897;29;45398;-83
2021/11/21 09:17:21;;;;;;;;;20.00;16.33;;;;;;;;4889449;29;45481;-84
2021/11/21 09:19:46;;;;;;;;;18.67;18.33;;;;;;;;4889174;29;47129;-84
2021/11/21 09:22:12;;;;;;;;;15.67;13.00;;;;;;;;4889605;29;45405;-84
2021/11/21 09:24:37;;;;;;;;;18.00;15.33;;;;;;;;4889373;29;45696;-84
2021/11/21 09:27:02;;;;;;;;;19.33;17.67;;;;;;;;4875824;29;45634;-83
2021/11/21 09:29:27;;;;;;;;;20.00;16.00;;;;;;;;4892160;29;47340;-84
2021/11/21 09:31:52;;;;;;;;;17.00;15.00;;;;;;;;4893941;29;45140;-84
2021/11/21 09:34:21;;;;;;;;;16.67;14.67;;;;;;;;4893922;29;45398;-84
2021/11/21 09:36:46;;;;;;;;;19.67;18.33;;;;;;;;4892253;29;45546;-84
2021/11/21 09:39:12;;;;;;;;;13.67;13.67;;;;;;;;4891418;29;47133;-83
2021/11/21 09:41:38;;;;;;;;;17.33;14.00;;;;;;;;4877263;29;45507;-84
2021/11/21 09:44:06;;;;;;;;;20.33;17.00;;;;;;;;4893123;29;44761;-84
2021/11/21 09:46:32;;;;;;;;;19.00;18.00;;;;;;;;4893685;29;44777;-84
2021/11/21 09:48:58;;;;;;;;;21.00;17.67;;;;;;;;4892407;29;47919;-84
2021/11/21 09:51:27;;;;;;;;;23.67;21.00;;;;;;;;4877839;29;45416;-84
2021/11/21 09:53:52;;;;;;;;;21.33;16.33;;;;;;;;4891899;29;45941;-83
2021/11/21 09:56:17;;;;;;;;;18.33;18.00;;;;;;;;4891760;29;44870;-83
2021/11/21 09:58:43;;;;;;;;;25.00;23.67;;;;;;;;4890708;29;47352;-83
2021/11/21 10:01:28;;;;;;;;;26.67;19.67;;;;;;;;4892336;29;45672;-85
2021/11/21 10:04:00;;;;;;;;;16.00;15.33;;;;;;;;4876347;29;45601;-84
2021/11/21 10:06:44;;;;;;;;;19.33;19.00;;;;;;;;4891943;29;45438;-84
2021/11/21 10:09:10;;;;;;;;;25.33;19.33;;;;;;;;4874942;29;47108;-84
2021/11/21 10:11:54;;;;;;;;;18.00;15.00;;;;;;;;4891395;29;45762;-83
2021/11/21 10:14:19;;;;;;;;;26.00;20.33;;;;;;;;4875799;29;45821;-82
2021/11/21 10:16:48;;;;;;;;;26.33;20.33;;;;;;;;4892125;29;45681;-83
2021/11/21 10:19:13;;;;;;;;;21.00;19.00;;;;;;;;4891549;29;45429;-84
2021/11/21 10:21:49;;;;;;;;;19.33;17.33;;;;;;;;4875722;29;45569;-85
2021/11/21 10:24:27;;;;;;;;;15.00;10.00;;;;;;;;4893592;29;45409;-83
2021/11/21 10:27:07;;;;;;;;;25.67;19.33;;;;;;;;4893057;29;45888;-83
2021/11/21 10:29:35;;;;;;;;;20.67;18.67;;;;;;;;4894504;29;45498;-83
2021/11/21 10:32:02;;;;;;;;;22.67;20.00;;;;;;;;4878156;29;45482;-83
2021/11/21 10:34:27;;;;;;;;;21.00;20.00;;;;;;;;4891743;29;45467;-84
2021/11/21 10:36:52;;;;;;;;;24.33;20.00;;;;;;;;4875374;29;45429;-84
2021/11/21 10:39:24;;;;;;;;;18.33;18.33;;;;;;;;4876254;29;47275;-85
2021/11/21 10:41:51;;;;;;;;;30.00;24.33;;;;;;;;4877558;29;45444;-84
2021/11/21 10:44:20;;;;;;;;;23.00;20.67;;;;;;;;4889085;29;45346;-84
2021/11/21 10:46:46;;;;;;;;;21.33;20.00;;;;;;;;4873645;29;45421;-84
2021/11/21 10:49:13;;;;;;;;;19.33;17.67;;;;;;;;4857793;29;45441;-84
2021/11/21 10:51:39;;;;;;;;;25.33;22.33;;;;;;;;4856131;29;44848;-84
2021/11/21 10:54:16;;;;;;;;;25.33;22.33;;;;;;;;4871894;29;45346;-83
2021/11/21 10:56:48;;;;;;;;;21.33;19.33;;;;;;;;4851729;29;45473;-84
2021/11/21 10:59:13;;;;;;;;;27.00;23.00;;;;;;;;4851865;29;46762;-83
2021/11/21 11:01:39;;;;;;;;;20.67;19.00;;;;;;;;4851573;29;45458;-84
2021/11/21 11:04:14;;;;;;;;;22.67;19.33;;;;;;;;4853892;29;45448;-84
2021/11/21 11:06:41;;;;;;;;;26.67;24.33;;;;;;;;4852447;29;45496;-84
2021/11/21 11:09:18;;;;;;;;;25.33;22.00;;;;;;;;4852069;29;45432;-84
2021/11/21 11:11:43;;;;;;;;;24.67;22.67;;;;;;;;4852174;29;45811;-84
2021/11/21 11:14:09;;;;;;;;;25.33;19.67;;;;;;;;4853248;29;45404;-83
2021/11/21 11:16:34;;;;;;;;;22.00;21.67;;;;;;;;4854153;29;45426;-83
2021/11/21 11:19:01;;;;;;;;;25.00;24.00;;;;;;;;4854976;29;49036;-82
2021/11/21 11:21:28;;;;;;;;;26.33;22.67;;;;;;;;4837008;29;45471;-82
2021/11/21 11:23:53;;;;;;;;;24.00;23.00;;;;;;;;4854287;29;45413;-83
2021/11/21 11:26:21;;;;;;;;;22.67;19.67;;;;;;;;4857206;29;45374;-83
2021/11/21 11:28:48;;;;;;;;;23.00;21.67;;;;;;;;4856055;29;45395;-83
2021/11/21 11:31:24;;;;;;;;;33.33;26.00;;;;;;;;4838969;29;45490;-83
2021/11/21 11:33:51;;;;;;;;;30.33;25.67;;;;;;;;4855117;29;44757;-83
2021/11/21 11:36:20;;;;;;;;;28.33;26.00;;;;;;;;4837518;29;45401;-83
2021/11/21 11:38:58;;;;;;;;;30.33;25.00;;;;;;;;4851243;29;47256;-83
2021/11/21 11:41:28;;;;;;;;;26.33;23.67;;;;;;;;4839389;29;45410;-82
2021/11/21 11:43:54;;;;;;;;;31.00;27.00;;;;;;;;4855814;29;45503;-82
2021/11/21 11:46:30;;;;;;;;;32.67;26.00;;;;;;;;4855953;29;45387;-83
2021/11/21 11:48:59;;;;;;;;;25.67;21.33;;;;;;;;4838691;29;48193;-83
2021/11/21 11:51:37;;;;;;;;;31.00;27.00;;;;;;;;4839976;29;45329;-83
2021/11/21 11:54:15;;;;;;;;;25.67;24.67;;;;;;;;4856504;29;45367;-83
2021/11/21 11:56:42;;;;;;;;;23.00;21.67;;;;;;;;4856698;29;45439;-83
2021/11/21 11:59:08;;;;;;;;;28.67;21.33;;;;;;;;4839878;29;47439;-83
2021/11/21 12:01:42;;;;;;;;;25.33;23.33;;;;;;;;4868920;29;45420;-83
2021/11/21 12:04:10;;;;;;;;;26.67;26.67;;;;;;;;4873233;29;45704;-82
2021/11/21 12:06:47;;;;;;;;;30.00;22.00;;;;;;;;4874390;29;45743;-83
2021/11/21 12:09:15;;;;;;;;;27.33;27.00;;;;;;;;4872772;29;46127;-84
2021/11/21 12:12:18;;;;;;;;;33.67;29.00;;;;;;;;4856708;29;45428;-83
2021/11/21 12:14:44;;;;;;;;;30.67;24.33;;;;;;;;4799707;29;45515;-83
2021/11/21 12:17:10;;;;;;;;;19.00;19.00;;;;;;;;4815608;29;45523;-83
2021/11/21 12:19:41;;;;;;;;;30.67;24.67;;;;;;;;4814770;29;46957;-84
2021/11/21 12:22:32;;;;;;;;;30.33;25.67;;;;;;;;4814361;29;46085;-84
2021/11/21 12:24:59;;;;;;;;;30.33;24.00;;;;;;;;4814513;29;45205;-83
2021/11/21 12:27:32;;;;;;;;;26.00;23.33;;;;;;;;4814805;29;45358;-83
2021/11/21 12:33:02;;;;;;;;;28.67;25.67;;;;;;;;4815066;29;45455;-84
2021/11/21 12:35:32;;;;;;;;;26.00;23.00;;;;;;;;4813977;29;45925;-84
2021/11/21 12:38:02;;;;;;;;;28.00;27.33;;;;;;;;4815824;29;45503;-84
2021/11/21 12:40:27;;;;;;;;;25.67;24.33;;;;;;;;4815865;29;47430;-83
2021/11/21 12:42:54;;;;;;;;;25.33;22.33;;;;;;;;4817028;29;45509;-83
2021/11/21 12:45:24;;;;;;;;;22.33;22.00;;;;;;;;4816215;29;45489;-83
2021/11/21 12:47:50;;;;;;;;;24.00;21.00;;;;;;;;4822232;29;45522;-83
2021/11/21 12:50:18;;;;;;;;;27.67;23.00;;;;;;;;4872500;29;45511;-83
2021/11/21 12:52:54;;;;;;;;;26.00;20.00;;;;;;;;4871615;29;45441;-83
2021/11/21 12:55:20;;;;;;;;;24.00;23.00;;;;;;;;4855501;29;45422;-84
2021/11/21 12:57:49;;;;;;;;;27.00;26.00;;;;;;;;4873713;29;45331;-83
2021/11/21 13:00:14;;;;;;;;;23.67;23.00;;;;;;;;4856113;29;48466;-83
2021/11/21 13:02:40;;;;;;;;;22.33;21.00;;;;;;;;4873898;29;45325;-84
2021/11/21 13:05:05;;;;;;;;;20.67;19.33;;;;;;;;4874063;29;45971;-84
2021/11/21 13:07:36;;;;;;;;;25.33;20.33;;;;;;;;4859020;29;45378;-84
2021/11/21 13:10:04;;;;;;;;;16.33;12.33;;;;;;;;4857350;29;48085;-83
2021/11/21 13:12:31;;;;;;;;;31.00;26.00;;;;;;;;4857854;29;45488;-84
2021/11/21 13:15:22;;;;;;;;;22.67;21.67;;;;;;;;4872188;29;45605;-83
2021/11/21 13:18:07;;;;;;;;;21.33;20.67;;;;;;;;4872134;29;45590;-83
2021/11/21 13:20:33;;;;;;;;;25.67;22.67;;;;;;;;4856698;29;46823;-83
2021/11/21 13:23:03;;;;;;;;;30.67;23.67;;;;;;;;4872948;29;45325;-83
2021/11/21 13:25:36;;;;;;;;;23.00;23.00;;;;;;;;4874164;29;45416;-83
2021/11/21 13:28:20;;;;;;;;;23.33;22.00;;;;;;;;4874820;29;45408;-82
2021/11/21 13:33:54;;;;;;;;;18.33;16.67;;;;;;;;4875391;29;44909;-83
2021/11/21 13:36:28;;;;;;;;;19.33;17.33;;;;;;;;4875439;29;45487;-83
2021/11/21 13:39:12;;;;;;;;;20.33;19.67;;;;;;;;4860745;29;45424;-84
2021/11/21 13:41:39;;;;;;;;;14.33;12.00;;;;;;;;4876720;29;45504;-84
2021/11/21 13:44:15;;;;;;;;;19.67;19.33;;;;;;;;4874605;29;45405;-84
2021/11/21 13:46:41;;;;;;;;;23.33;21.00;;;;;;;;4876487;29;45451;-83
2021/11/21 13:49:22;;;;;;;;;20.67;19.33;;;;;;;;4872393;29;45609;-84
2021/11/21 13:54:52;;;;;;;;;14.33;13.00;;;;;;;;4873860;29;45797;-83
2021/11/21 13:57:26;;;;;;;;;16.33;14.33;;;;;;;;4859360;29;45943;-83
2021/11/21 13:59:52;;;;;;;;;11.67;11.67;;;;;;;;4859366;29;45549;-83
2021/11/21 14:02:34;;;;;;;;;11.33;11.33;;;;;;;;4857554;29;48134;-84
2021/11/21 14:08:04;;;;;;;;;12.67;9.00;;;;;;;;4873785;29;45560;-83
2021/11/21 14:10:32;;;;;;;;;9.67;9.67;;;;;;;;4858339;29;45412;-83
2021/11/21 14:13:12;;;;;;;;;10.00;10.00;;;;;;;;4857670;29;47790;-83
2021/11/21 14:15:38;;;;;;;;;12.00;10.00;;;;;;;;4872618;29;45546;-83
2021/11/21 14:18:04;;;;;;;;;12.33;11.00;;;;;;;;4871981;29;45530;-83
2021/11/21 14:20:31;;;;;;;;;12.00;9.67;;;;;;;;4857102;29;45434;-83
2021/11/21 14:23:06;;;;;;;;;11.00;9.67;;;;;;;;4857048;29;47080;-83
2021/11/21 14:25:34;;;;;;;;;7.00;7.00;;;;;;;;4873879;29;45363;-83
2021/11/21 14:28:07;;;;;;;;;10.33;10.33;;;;;;;;4858225;29;45420;-83
2021/11/21 14:30:39;;;;;;;;;8.00;8.00;;;;;;;;4876589;29;45412;-83
2021/11/21 14:33:15;;;;;;;;;9.67;7.67;;;;;;;;4874459;29;45411;-83
2021/11/21 14:35:42;;;;;;;;;11.67;10.33;;;;;;;;4857183;29;45818;-83
2021/11/21 14:38:08;;;;;;;;;8.67;8.67;;;;;;;;4857702;29;45768;-84